createdAt,value
2022-12-14T00:01:28.027Z,18.35
2022-12-14T00:03:55.999Z,16.92
2022-12-14T00:06:25.579Z,17.30
2022-12-14T00:08:54.878Z,21.27
2022-12-14T00:11:24.891Z,18.48
2022-12-14T00:14:03.041Z,18.50
2022-12-14T00:16:32.858Z,21.83
2022-12-14T00:19:01.107Z,18.05
2022-12-14T00:21:28.456Z,19.02
2022-12-14T00:23:55.927Z,20.13
2022-12-14T00:26:25.833Z,17.95
2022-12-14T00:28:53.901Z,18.73
2022-12-14T00:31:22.200Z,20.92
2022-12-14T00:33:50.445Z,19.40
2022-12-14T00:36:17.479Z,20.98
2022-12-14T00:38:44.329Z,20.45
2022-12-14T00:41:11.532Z,18.55
2022-12-14T00:43:38.401Z,20.35
2022-12-14T00:46:05.508Z,19.77
2022-12-14T00:48:33.132Z,19.05
2022-12-14T00:51:00.512Z,17.75
2022-12-14T00:53:27.399Z,17.85
2022-12-14T00:55:54.216Z,19.25
2022-12-14T00:58:23.435Z,20.40
2022-12-14T01:01:07.527Z,21.90
2022-12-14T01:03:35.067Z,17.92
2022-12-14T01:06:02.587Z,17.75
2022-12-14T01:08:36.050Z,16.67
2022-12-14T01:11:07.911Z,18.63
2022-12-14T01:13:35.782Z,20.35
2022-12-14T01:16:07.023Z,20.30
2022-12-14T01:18:35.590Z,22.92
2022-12-14T01:21:22.304Z,21.98
2022-12-14T01:23:53.830Z,22.35
2022-12-14T01:26:21.288Z,19.55
2022-12-14T01:28:52.408Z,22.73
2022-12-14T01:31:22.205Z,19.85
2022-12-14T01:33:49.294Z,19.98
2022-12-14T01:36:18.596Z,19.15
2022-12-14T01:38:46.053Z,16.45
2022-12-14T01:41:36.290Z,18.52
2022-12-14T01:44:22.889Z,18.45
2022-12-14T01:47:27.397Z,17.45
2022-12-14T01:50:17.500Z,17.92
2022-12-14T01:52:47.134Z,19.15
2022-12-14T01:55:20.998Z,20.30
2022-12-14T01:58:10.534Z,16.50
2022-12-14T02:00:37.818Z,16.77
2022-12-14T02:03:10.760Z,20.08
2022-12-14T02:05:42.210Z,18.52
2022-12-14T02:08:09.528Z,18.08
2022-12-14T02:10:36.503Z,20.25
2022-12-14T02:13:14.635Z,20.35
2022-12-14T02:15:42.211Z,18.90
2022-12-14T02:18:31.396Z,19.52
2022-12-14T02:21:03.809Z,17.42
2022-12-14T02:23:42.627Z,17.85
2022-12-14T02:26:40.273Z,19.42
2022-12-14T02:29:09.649Z,17.52
2022-12-14T02:32:06.705Z,16.38
2022-12-14T02:34:42.521Z,19.52
2022-12-14T02:37:22.565Z,17.42
2022-12-14T02:40:32.855Z,19.70
2022-12-14T02:43:08.465Z,22.02
2022-12-14T02:45:42.773Z,19.20
2022-12-14T02:48:39.637Z,21.75
2022-12-14T02:51:30.433Z,20.77
2022-12-14T02:54:04.716Z,19.38
2022-12-14T02:56:43.800Z,20.98
2022-12-14T02:59:11.972Z,21.15
2022-12-14T03:01:40.102Z,17.98
2022-12-14T03:04:07.694Z,18.90
2022-12-14T03:06:34.612Z,19.23
2022-12-14T03:09:08.636Z,18.65
2022-12-14T03:12:04.330Z,18.58
2022-12-14T03:14:35.679Z,18.98
2022-12-14T03:17:17.627Z,20.48
2022-12-14T03:20:02.085Z,18.58
2022-12-14T03:22:39.967Z,18.25
2022-12-14T03:25:16.474Z,19.27
2022-12-14T03:27:51.793Z,19.80
2022-12-14T03:30:43.965Z,19.52
2022-12-14T03:33:10.629Z,17.25
2022-12-14T03:35:46.780Z,18.33
2022-12-14T03:38:32.570Z,18.55
2022-12-14T03:41:26.331Z,16.95
2022-12-14T03:44:19.499Z,18.65
2022-12-14T03:46:46.176Z,20.02
2022-12-14T03:49:28.384Z,19.17
2022-12-14T03:51:55.046Z,20.17
2022-12-14T03:54:49.585Z,19.67
2022-12-14T03:57:53.086Z,21.75
2022-12-14T04:00:23.453Z,19.15
2022-12-14T04:02:50.335Z,19.83
2022-12-14T04:05:41.718Z,21.35
2022-12-14T04:08:41.834Z,19.58
2022-12-14T04:11:32.134Z,18.27
2022-12-14T04:14:46.979Z,19.48
2022-12-14T04:17:37.920Z,20.52
2022-12-14T04:20:13.080Z,21.33
2022-12-14T04:22:46.438Z,17.92
2022-12-14T04:25:37.184Z,20.15
2022-12-14T04:28:34.785Z,20.98
2022-12-14T04:31:07.895Z,20.77
2022-12-14T04:33:48.500Z,20.95
2022-12-14T04:36:30.848Z,18.75
2022-12-14T04:39:04.774Z,20.83
2022-12-14T04:41:36.483Z,20.48
2022-12-14T04:46:41.127Z,21.42
2022-12-14T04:49:19.125Z,20.35
2022-12-14T04:52:06.103Z,20.48
2022-12-14T04:54:35.851Z,22.65
2022-12-14T04:57:15.872Z,20.00
2022-12-14T04:59:46.085Z,22.02
2022-12-14T05:02:50.880Z,20.90
2022-12-14T05:05:42.687Z,21.73
2022-12-14T05:08:46.905Z,23.02
2022-12-14T05:14:29.272Z,21.58
2022-12-14T05:16:56.989Z,21.23
2022-12-14T05:19:26.541Z,25.05
2022-12-14T05:21:54.349Z,22.75
2022-12-14T05:24:21.049Z,21.25
2022-12-14T05:26:47.910Z,24.65
2022-12-14T05:29:15.165Z,24.52
2022-12-14T05:31:41.932Z,22.17
2022-12-14T05:34:15.856Z,21.35
2022-12-14T05:36:42.563Z,21.88
2022-12-14T05:39:09.360Z,22.42
2022-12-14T05:41:36.185Z,21.63
2022-12-14T05:44:02.905Z,23.90
2022-12-14T05:46:29.681Z,23.60
2022-12-14T05:48:56.586Z,21.75
2022-12-14T05:51:23.298Z,22.30
2022-12-14T05:53:50.128Z,22.17
2022-12-14T05:56:17.176Z,22.15
2022-12-14T05:58:43.933Z,21.90
2022-12-14T06:01:18.539Z,22.85
2022-12-14T06:03:46.707Z,20.95
2022-12-14T06:06:14.614Z,22.75
2022-12-14T06:08:45.848Z,25.35
2022-12-14T06:13:42.352Z,23.92
2022-12-14T06:16:09.311Z,24.70
2022-12-14T06:18:36.514Z,24.30
2022-12-14T06:21:03.629Z,21.52
2022-12-14T06:23:30.690Z,24.02
2022-12-14T06:25:57.580Z,26.00
2022-12-14T06:28:24.506Z,25.50
2022-12-14T06:30:51.405Z,24.20
2022-12-14T06:33:18.229Z,23.88
2022-12-14T06:35:46.264Z,26.20
2022-12-14T06:38:13.980Z,27.08
2022-12-14T06:40:41.307Z,24.42
2022-12-14T06:43:08.347Z,28.65
2022-12-14T06:45:35.148Z,27.50
2022-12-14T06:48:02.172Z,25.50
2022-12-14T06:50:29.022Z,26.30
2022-12-14T06:52:56.136Z,26.05
2022-12-14T06:55:26.406Z,26.80
2022-12-14T06:57:54.334Z,26.63
2022-12-14T07:00:23.115Z,27.63
2022-12-14T07:02:50.702Z,29.05
2022-12-14T07:05:17.679Z,25.48
2022-12-14T07:07:44.495Z,28.10
2022-12-14T07:10:12.840Z,30.15
2022-12-14T07:12:40.513Z,28.55
2022-12-14T07:15:08.088Z,27.73
2022-12-14T07:17:36.428Z,27.38
2022-12-14T07:20:05.675Z,28.48
2022-12-14T07:22:33.097Z,25.65
2022-12-14T07:25:00.315Z,25.48
2022-12-14T07:27:27.081Z,28.08
2022-12-14T07:29:54.229Z,25.33
2022-12-14T07:32:21.110Z,27.45
2022-12-14T07:34:48.151Z,26.48
2022-12-14T07:37:15.150Z,27.85
2022-12-14T07:39:41.873Z,30.35
2022-12-14T07:42:08.821Z,27.58
2022-12-14T07:44:35.521Z,26.13
2022-12-14T07:47:02.224Z,28.58
2022-12-14T07:49:29.475Z,28.58
2022-12-14T07:51:56.205Z,27.02
2022-12-14T07:54:23.370Z,26.70
2022-12-14T07:56:50.948Z,26.75
2022-12-14T07:59:17.700Z,25.33
2022-12-14T08:01:45.252Z,27.38
2022-12-14T08:04:15.741Z,26.73
2022-12-14T08:06:43.316Z,28.50
2022-12-14T08:09:11.886Z,26.92
2022-12-14T08:11:40.150Z,25.75
2022-12-14T08:14:11.679Z,22.40
2022-12-14T08:16:38.464Z,25.95
2022-12-14T08:19:05.245Z,25.50
2022-12-14T08:21:32.022Z,25.15
2022-12-14T08:23:59.261Z,22.75
2022-12-14T08:26:30.146Z,22.50
2022-12-14T08:29:00.149Z,21.35
2022-12-14T08:31:28.295Z,24.10
2022-12-14T08:33:55.476Z,26.77
2022-12-14T08:36:25.138Z,24.63
2022-12-14T08:38:54.144Z,23.33
2022-12-14T08:41:21.592Z,22.98
2022-12-14T08:43:54.032Z,23.55
2022-12-14T08:46:21.481Z,24.75
2022-12-14T08:48:50.699Z,23.50
2022-12-14T08:51:17.612Z,23.90
2022-12-14T08:53:44.619Z,24.95
2022-12-14T08:56:14.391Z,23.63
2022-12-14T08:58:42.041Z,25.27
2022-12-14T09:01:14.408Z,25.67
2022-12-14T09:03:44.459Z,24.27
2022-12-14T09:06:14.151Z,23.27
2022-12-14T09:08:41.128Z,22.67
2022-12-14T09:11:12.708Z,23.20
2022-12-14T09:13:39.820Z,23.40
2022-12-14T09:16:13.310Z,24.77
2022-12-14T09:18:40.556Z,24.60
2022-12-14T09:21:08.105Z,28.15
2022-12-14T09:23:36.335Z,26.55
2022-12-14T09:26:10.348Z,28.33
2022-12-14T09:28:39.228Z,26.20
2022-12-14T09:31:10.296Z,25.17
2022-12-14T09:33:37.755Z,24.73
2022-12-14T09:36:08.517Z,23.45
2022-12-14T09:38:37.743Z,25.88
2022-12-14T09:41:07.963Z,22.30
2022-12-14T09:43:40.919Z,23.95
2022-12-14T09:46:20.978Z,22.35
2022-12-14T09:48:49.212Z,27.75
2022-12-14T09:51:19.534Z,22.75
2022-12-14T09:53:50.418Z,20.33
2022-12-14T09:56:20.168Z,22.87
2022-12-14T09:59:02.031Z,23.35
2022-12-14T10:04:36.725Z,24.27
2022-12-14T10:07:24.149Z,24.60
2022-12-14T10:10:01.291Z,28.33
2022-12-14T10:12:38.387Z,22.67
2022-12-14T10:15:28.083Z,22.67
2022-12-14T10:18:00.500Z,22.08
2022-12-14T10:20:40.086Z,25.45
2022-12-14T10:23:18.113Z,21.90
2022-12-14T10:25:51.521Z,22.23
2022-12-14T10:28:24.835Z,25.83
2022-12-14T10:31:00.489Z,23.33
2022-12-14T10:33:32.105Z,20.75
2022-12-14T10:36:12.003Z,21.45
2022-12-14T10:38:58.359Z,21.38
2022-12-14T10:41:41.079Z,21.88
2022-12-14T10:44:32.457Z,20.13
2022-12-14T10:47:06.225Z,18.63
2022-12-14T10:49:55.488Z,19.35
2022-12-14T10:52:26.619Z,19.05
2022-12-14T10:54:55.588Z,21.17
2022-12-14T10:57:27.541Z,17.42
2022-12-14T11:00:10.900Z,18.17
2022-12-14T11:02:43.269Z,18.75
2022-12-14T11:05:45.534Z,15.40
2022-12-14T11:08:48.242Z,16.02
2022-12-14T11:11:26.403Z,16.17
2022-12-14T11:14:10.185Z,13.70
2022-12-14T11:16:39.376Z,13.02
2022-12-14T11:19:16.793Z,13.95
2022-12-14T11:21:44.579Z,11.35
2022-12-14T11:24:25.761Z,12.15
2022-12-14T11:27:01.087Z,12.23
2022-12-14T11:29:34.258Z,10.63
2022-12-14T11:32:01.774Z,10.95
2022-12-14T11:34:38.219Z,11.38
2022-12-14T11:37:21.566Z,7.90
2022-12-14T11:39:55.134Z,8.32
2022-12-14T11:42:23.019Z,9.27
2022-12-14T11:44:51.273Z,6.65
2022-12-14T11:47:20.083Z,4.63
2022-12-14T11:49:50.536Z,9.02
2022-12-14T11:52:21.809Z,9.23
2022-12-14T11:55:14.934Z,9.32
2022-12-14T11:57:53.016Z,6.13
2022-12-14T12:00:52.656Z,4.53
2022-12-14T12:03:23.317Z,6.78
2022-12-14T12:05:51.827Z,5.78
2022-12-14T12:08:27.065Z,8.23
2022-12-14T12:11:01.809Z,5.97
2022-12-14T12:13:39.100Z,6.63
2022-12-14T12:16:16.803Z,9.57
2022-12-14T12:19:11.893Z,4.03
2022-12-14T12:21:44.860Z,5.15
2022-12-14T12:24:20.864Z,5.00
2022-12-14T12:27:12.160Z,6.93
2022-12-14T12:29:54.234Z,7.43
2022-12-14T12:35:11.410Z,8.82
2022-12-14T12:37:50.275Z,8.23
2022-12-14T12:40:24.443Z,8.32
2022-12-14T12:43:03.673Z,12.80
2022-12-14T12:45:39.361Z,8.77
2022-12-14T12:48:22.047Z,8.45
2022-12-14T12:50:53.510Z,6.00
2022-12-14T12:53:37.320Z,32.42
2022-12-14T12:56:10.841Z,22.50
2022-12-14T12:58:39.498Z,8.65
2022-12-14T13:01:44.188Z,6.03
2022-12-14T13:04:41.267Z,10.68
2022-12-14T13:07:32.335Z,7.72
2022-12-14T13:10:06.207Z,14.63
2022-12-14T13:12:39.105Z,6.25
2022-12-14T13:15:42.216Z,7.78
2022-12-14T13:18:40.658Z,8.98
2022-12-14T13:21:36.196Z,9.93
2022-12-14T13:24:05.120Z,5.50
2022-12-14T13:26:57.225Z,9.18
2022-12-14T13:29:47.384Z,8.90
2022-12-14T13:32:47.224Z,5.60
2022-12-14T13:35:58.128Z,8.23
2022-12-14T13:38:48.813Z,7.55
2022-12-14T13:41:34.084Z,5.88
2022-12-14T13:44:04.396Z,8.25
2022-12-14T13:46:31.600Z,7.05
2022-12-14T13:49:05.539Z,6.03
2022-12-14T13:51:36.872Z,5.90
2022-12-14T13:54:07.707Z,8.15
2022-12-14T13:56:38.482Z,6.80
2022-12-14T13:59:21.641Z,7.53
2022-12-14T14:01:48.560Z,6.65
2022-12-14T14:04:21.198Z,8.98
2022-12-14T14:06:55.616Z,9.40
2022-12-14T14:09:31.441Z,10.25
2022-12-14T14:12:03.204Z,10.43
2022-12-14T14:17:01.165Z,11.43
2022-12-14T14:19:35.084Z,10.45
2022-12-14T14:22:22.728Z,11.10
2022-12-14T14:24:59.496Z,12.25
2022-12-14T14:27:50.341Z,10.55
2022-12-14T14:30:25.923Z,10.07
2022-12-14T14:32:54.270Z,12.43
2022-12-14T14:35:22.567Z,12.55
2022-12-14T14:37:57.113Z,10.15
2022-12-14T14:40:44.186Z,11.18
2022-12-14T14:43:37.837Z,11.35
2022-12-14T14:46:07.993Z,11.52
2022-12-14T14:48:37.371Z,12.07
2022-12-14T14:51:34.957Z,9.63
2022-12-14T14:57:32.933Z,11.27
2022-12-14T15:00:02.461Z,10.57
2022-12-14T15:07:58.622Z,12.48
2022-12-14T15:10:39.390Z,11.80
2022-12-14T15:13:09.367Z,10.90
2022-12-14T15:15:45.307Z,11.40
2022-12-14T15:18:22.815Z,11.13
2022-12-14T15:21:11.810Z,11.10
2022-12-14T15:23:52.903Z,10.40
2022-12-14T15:26:21.493Z,11.00
2022-12-14T15:28:51.560Z,10.80
2022-12-14T15:31:26.906Z,10.77
2022-12-14T15:33:54.693Z,11.85
2022-12-14T15:36:27.048Z,12.82
2022-12-14T15:38:56.820Z,10.57
2022-12-14T15:41:27.571Z,12.93
2022-12-14T15:43:59.585Z,12.27
2022-12-14T15:46:33.456Z,11.32
2022-12-14T15:49:09.033Z,10.85
2022-12-14T15:51:39.230Z,12.18
2022-12-14T15:54:08.076Z,10.63
2022-12-14T15:56:39.738Z,9.60
2022-12-14T15:59:19.804Z,11.82
2022-12-14T16:02:01.397Z,10.15
2022-12-14T16:04:32.582Z,12.68
2022-12-14T16:07:24.356Z,9.98
2022-12-14T16:10:02.091Z,13.48
2022-12-14T16:12:45.847Z,10.27
2022-12-14T16:15:29.455Z,11.98
2022-12-14T16:18:02.061Z,13.10
2022-12-14T16:20:37.836Z,13.75
2022-12-14T16:23:15.691Z,12.77
2022-12-14T16:26:20.632Z,11.85
2022-12-14T16:28:48.221Z,9.80
2022-12-14T16:31:20.869Z,11.25
2022-12-14T16:34:05.511Z,11.13
2022-12-14T16:36:35.731Z,14.32
2022-12-14T16:39:54.723Z,11.57
2022-12-14T16:42:35.924Z,12.57
2022-12-14T16:45:03.269Z,11.50
2022-12-14T16:47:36.627Z,12.35
2022-12-14T16:53:21.521Z,10.27
2022-12-14T16:56:07.489Z,11.23
2022-12-14T16:58:36.138Z,12.90
2022-12-14T17:01:06.599Z,10.23
2022-12-14T17:03:35.277Z,12.38
2022-12-14T17:06:05.946Z,10.55
2022-12-14T17:08:34.521Z,13.38
2022-12-14T17:11:02.379Z,11.48
2022-12-14T17:13:29.717Z,14.27
2022-12-14T17:16:04.672Z,15.13
2022-12-14T17:18:34.969Z,11.68
2022-12-14T17:21:05.471Z,13.07
2022-12-14T17:23:33.888Z,13.82
2022-12-14T17:26:01.074Z,15.10
2022-12-14T17:28:31.126Z,12.70
2022-12-14T17:31:01.795Z,11.77
2022-12-14T17:33:30.286Z,11.20
2022-12-14T17:35:57.771Z,13.65
2022-12-14T17:38:24.726Z,11.32
2022-12-14T17:40:53.818Z,10.48
2022-12-14T17:43:24.769Z,9.93
2022-12-14T17:45:52.708Z,9.20
2022-12-14T17:48:19.733Z,10.40
2022-12-14T17:50:49.767Z,13.25
2022-12-14T17:53:22.141Z,11.90
2022-12-14T17:55:48.933Z,10.73
2022-12-14T17:58:16.824Z,12.70
2022-12-14T18:01:03.314Z,9.40
2022-12-14T18:03:33.759Z,12.35
2022-12-14T18:06:02.362Z,12.27
2022-12-14T18:08:29.610Z,12.20
2022-12-14T18:11:11.780Z,10.18
2022-12-14T18:13:41.358Z,12.68
2022-12-14T18:16:12.517Z,11.13
2022-12-14T18:18:39.857Z,10.75
2022-12-14T18:21:13.973Z,11.00
2022-12-14T18:23:41.063Z,14.60
2022-12-14T18:26:08.453Z,12.48
2022-12-14T18:28:45.139Z,12.65
2022-12-14T18:31:32.744Z,13.00
2022-12-14T18:34:00.123Z,11.93
2022-12-14T18:36:27.762Z,11.60
2022-12-14T18:38:55.565Z,12.55
2022-12-14T18:41:25.543Z,11.50
2022-12-14T18:43:52.721Z,13.15
2022-12-14T18:46:19.808Z,12.27
2022-12-14T18:48:46.698Z,13.00
2022-12-14T18:51:16.217Z,13.90
2022-12-14T18:53:44.034Z,18.40
2022-12-14T18:56:12.194Z,13.07
2022-12-14T18:58:42.034Z,13.32
2022-12-14T19:01:15.203Z,11.18
2022-12-14T19:03:42.880Z,13.93
2022-12-14T19:09:03.726Z,12.90
2022-12-14T19:11:32.840Z,12.43
2022-12-14T19:14:01.343Z,11.10
2022-12-14T19:16:29.656Z,12.63
2022-12-14T19:18:57.861Z,13.45
2022-12-14T19:21:29.648Z,15.48
2022-12-14T19:23:59.758Z,11.10
2022-12-14T19:26:28.668Z,15.23
2022-12-14T19:28:56.030Z,12.98
2022-12-14T19:31:23.031Z,12.10
2022-12-14T19:33:50.102Z,11.73
2022-12-14T19:36:17.283Z,14.45
2022-12-14T19:38:44.968Z,11.52
2022-12-14T19:41:18.018Z,10.07
2022-12-14T19:43:46.511Z,11.05
2022-12-14T19:46:16.312Z,14.00
2022-12-14T19:48:43.966Z,12.20
2022-12-14T19:51:12.982Z,9.25
2022-12-14T19:53:41.442Z,12.70
2022-12-14T19:56:09.074Z,11.35
2022-12-14T19:58:36.248Z,11.23
2022-12-14T20:01:11.988Z,14.05
2022-12-14T20:03:39.414Z,12.50
2022-12-14T20:06:06.932Z,9.50
2022-12-14T20:08:34.955Z,14.65
2022-12-14T20:11:10.468Z,10.10
2022-12-14T20:13:37.560Z,12.43
2022-12-14T20:16:04.671Z,10.88
2022-12-14T20:18:32.039Z,13.70
2022-12-14T20:21:08.132Z,9.18
2022-12-14T20:23:36.207Z,10.23
2022-12-14T20:26:22.605Z,12.27
2022-12-14T20:28:54.789Z,12.70
2022-12-14T20:31:22.645Z,12.50
2022-12-14T20:33:50.054Z,12.80
2022-12-14T20:36:18.712Z,10.30
2022-12-14T20:38:46.450Z,10.23
2022-12-14T20:41:17.228Z,11.18
2022-12-14T20:43:45.068Z,13.43
2022-12-14T20:46:31.053Z,12.38
2022-12-14T20:49:01.503Z,11.27
2022-12-14T20:51:30.428Z,11.60
2022-12-14T20:53:57.472Z,10.65
2022-12-14T20:56:24.827Z,10.50
2022-12-14T20:58:51.613Z,12.85
2022-12-14T21:01:19.944Z,11.05
2022-12-14T21:03:48.038Z,12.02
2022-12-14T21:06:18.082Z,11.88
2022-12-14T21:09:04.127Z,11.77
2022-12-14T21:11:58.512Z,10.30
2022-12-14T21:14:29.962Z,10.57
2022-12-14T21:16:56.803Z,14.52
2022-12-14T21:19:23.648Z,9.40
2022-12-14T21:21:53.915Z,11.52
2022-12-14T21:24:53.171Z,10.75
2022-12-14T21:27:16.097Z,10.75
2022-12-14T21:29:42.973Z,10.80
2022-12-14T21:32:10.077Z,11.15
2022-12-14T21:34:36.934Z,9.18
2022-12-14T21:37:03.659Z,10.65
2022-12-14T21:39:30.389Z,12.63
2022-12-14T21:42:15.883Z,11.20
2022-12-14T21:44:47.569Z,12.55
2022-12-14T21:47:20.345Z,12.25
2022-12-14T21:49:47.591Z,13.95
2022-12-14T21:52:18.222Z,12.75
2022-12-14T21:54:45.663Z,11.40
2022-12-14T21:57:43.059Z,12.20
2022-12-14T22:00:16.977Z,13.18
2022-12-14T22:02:44.085Z,13.00
2022-12-14T22:05:11.049Z,12.30
2022-12-14T22:07:37.865Z,14.15
2022-12-14T22:10:05.322Z,10.55
2022-12-14T22:12:32.331Z,13.05
2022-12-14T22:14:59.819Z,11.30
2022-12-14T22:17:26.652Z,11.52
2022-12-14T22:19:55.277Z,11.30
2022-12-14T22:22:23.047Z,10.73
2022-12-14T22:24:51.298Z,13.63
2022-12-14T22:27:19.316Z,11.52
2022-12-14T22:29:46.084Z,12.07
2022-12-14T22:32:13.619Z,13.13
2022-12-14T22:34:40.807Z,13.15
2022-12-14T22:37:07.701Z,12.68
2022-12-14T22:39:34.756Z,14.13
2022-12-14T22:42:01.637Z,14.02
2022-12-14T22:44:28.490Z,13.90
2022-12-14T22:46:55.245Z,14.10
2022-12-14T22:49:22.082Z,14.38
2022-12-14T22:51:50.490Z,13.07
2022-12-14T22:54:22.381Z,12.95
2022-12-14T22:56:55.165Z,12.75
2022-12-14T22:59:36.864Z,12.07
2022-12-14T23:02:04.897Z,13.43
2022-12-14T23:04:32.021Z,14.00
2022-12-14T23:06:58.912Z,14.07
2022-12-14T23:09:44.256Z,14.50
2022-12-14T23:12:29.391Z,14.57
2022-12-14T23:15:14.504Z,14.75
2022-12-14T23:17:59.936Z,14.52
2022-12-14T23:20:45.037Z,14.48
2022-12-14T23:23:31.073Z,17.17
2022-12-14T23:26:20.962Z,16.25
2022-12-14T23:29:05.982Z,15.63
2022-12-14T23:31:51.384Z,15.23
2022-12-14T23:34:37.040Z,15.02
2022-12-14T23:37:22.111Z,15.43
2022-12-14T23:40:07.734Z,16.05
2022-12-14T23:42:53.057Z,14.98
2022-12-14T23:45:38.406Z,15.55
2022-12-14T23:48:23.508Z,13.75
2022-12-14T23:51:08.624Z,16.42
2022-12-14T23:53:53.888Z,16.55
2022-12-14T23:56:39.156Z,16.25
2022-12-14T23:59:29.700Z,15.15
